Terminal Aerodrome Forecast
Issued by NWS Mt. Holly, NJ

Home | Current Version | Previous Version | Text Only | Print | Product List | Glossary On
Versions: 1 2 3 4 5 6 7 8 9 10 11 12 13 14 15 16
982
FTUS41 KPHI 250533
TAFABE
TAF
KABE 250533Z 2506/2606 18008KT P6SM SCT015
      TEMPO 2506/2509 BKN015
     FM250900 16005KT 3SM BR OVC006
     FM251400 17010KT 6SM BR BKN015
     FM251600 19012G20KT P6SM BKN030
      TEMPO 2519/2521 28018G35KT 2SM +TSRA OVC020CB
     FM252100 30010KT P6SM VCSH OVC050
     FM260000 30012G20KT P6SM SCT040=

USA.gov is the U.S. government's official web portal to all federal, state and local government web resources and services.